createdAt,value
2023-04-28T00:00:43.043Z,95
2023-04-28T00:01:50.223Z,95
2023-04-28T00:02:57.419Z,95
2023-04-28T00:04:04.119Z,95
2023-04-28T00:05:11.026Z,95
2023-04-28T00:06:18.155Z,95
2023-04-28T00:07:25.214Z,95
2023-04-28T00:08:32.279Z,95
2023-04-28T00:09:38.863Z,95
2023-04-28T00:10:46.233Z,95
2023-04-28T00:11:53.096Z,95
2023-04-28T00:13:00.164Z,95
2023-04-28T00:14:07.276Z,95
2023-04-28T00:15:13.817Z,95
2023-04-28T00:16:21.026Z,95
2023-04-28T00:18:35.186Z,95
2023-04-28T00:19:42.270Z,95
2023-04-28T00:20:48.826Z,96
2023-04-28T00:21:56.033Z,96
2023-04-28T00:23:03.026Z,96
2023-04-28T00:24:10.235Z,96
2023-04-28T00:25:16.811Z,96
2023-04-28T00:26:23.905Z,96
2023-04-28T00:27:31.008Z,96
2023-04-28T00:28:38.077Z,96
2023-04-28T00:29:45.228Z,96
2023-04-28T00:30:51.787Z,96
2023-04-28T00:31:59.015Z,96
2023-04-28T00:33:06.090Z,96
2023-04-28T00:34:13.172Z,96
2023-04-28T00:35:20.239Z,96
2023-04-28T00:36:27.370Z,96
2023-04-28T00:37:33.852Z,96
2023-04-28T00:38:40.991Z,96
2023-04-28T00:40:55.221Z,96
2023-04-28T00:42:01.828Z,96
2023-04-28T00:43:09.054Z,96
2023-04-28T00:44:16.167Z,96
2023-04-28T00:45:23.063Z,96
2023-04-28T00:46:30.232Z,96
2023-04-28T00:47:36.835Z,96
2023-04-28T00:48:43.909Z,96
2023-04-28T00:49:51.011Z,96
2023-04-28T00:50:58.125Z,97
2023-04-28T00:52:06.553Z,97
2023-04-28T00:53:11.826Z,97
2023-04-28T00:54:19.140Z,97
2023-04-28T00:55:26.077Z,96
2023-04-28T00:56:33.093Z,97
2023-04-28T00:57:40.516Z,97
2023-04-28T00:58:46.823Z,97
2023-04-28T00:59:53.931Z,97
2023-04-28T01:01:00.981Z,97
2023-04-28T01:02:08.140Z,97
2023-04-28T01:03:15.420Z,97
2023-04-28T01:04:22.010Z,97
2023-04-28T01:05:28.899Z,97
2023-04-28T01:06:36.046Z,97
2023-04-28T01:07:43.143Z,97
2023-04-28T01:08:50.258Z,97
2023-04-28T01:09:56.852Z,97
2023-04-28T01:11:03.933Z,97
2023-04-28T01:12:11.037Z,97
2023-04-28T01:13:18.197Z,97
2023-04-28T01:14:25.350Z,97
2023-04-28T01:15:31.857Z,97
2023-04-28T01:16:39.496Z,97
2023-04-28T01:17:46.063Z,97
2023-04-28T01:18:53.131Z,97
2023-04-28T01:20:00.268Z,97
2023-04-28T01:22:13.981Z,97
2023-04-28T01:23:21.004Z,97
2023-04-28T01:24:28.315Z,97
2023-04-28T01:25:35.321Z,97
2023-04-28T01:26:41.797Z,97
2023-04-28T01:27:49.005Z,97
2023-04-28T01:28:56.095Z,97
2023-04-28T01:30:03.120Z,97
2023-04-28T01:31:10.370Z,98
2023-04-28T01:32:16.852Z,97
2023-04-28T01:33:23.960Z,97
2023-04-28T01:34:31.036Z,97
2023-04-28T01:35:38.235Z,98
2023-04-28T01:36:45.313Z,98
2023-04-28T01:37:51.846Z,98
2023-04-28T01:38:59.030Z,98
2023-04-28T01:40:06.646Z,98
2023-04-28T01:41:13.198Z,98
2023-04-28T01:42:20.366Z,98
2023-04-28T01:43:26.945Z,98
2023-04-28T01:44:33.987Z,97
2023-04-28T01:45:41.110Z,98
2023-04-28T01:46:48.218Z,98
2023-04-28T01:47:55.420Z,98
2023-04-28T01:49:01.917Z,98
2023-04-28T01:50:09.011Z,98
2023-04-28T01:51:16.189Z,98
2023-04-28T01:52:23.147Z,98
2023-04-28T01:53:29.808Z,98
2023-04-28T01:54:36.891Z,98
2023-04-28T01:55:43.992Z,98
2023-04-28T01:56:51.136Z,98
2023-04-28T01:57:58.189Z,98
2023-04-28T01:59:04.785Z,98
2023-04-28T02:00:11.851Z,98
2023-04-28T02:01:19.022Z,98
2023-04-28T02:02:26.176Z,98
2023-04-28T02:03:33.340Z,98
2023-04-28T02:04:39.880Z,98
2023-04-28T02:05:46.881Z,98
2023-04-28T02:06:53.997Z,99
2023-04-28T02:09:08.238Z,98
2023-04-28T02:10:14.821Z,98
2023-04-28T02:11:21.866Z,98
2023-04-28T02:12:29.076Z,99
2023-04-28T02:13:36.134Z,98
2023-04-28T02:14:43.250Z,99
2023-04-28T02:15:49.874Z,99
2023-04-28T02:16:56.929Z,99
2023-04-28T02:18:04.094Z,99
2023-04-28T02:19:11.150Z,99
2023-04-28T02:20:18.220Z,99
2023-04-28T02:21:24.838Z,98
2023-04-28T02:22:31.961Z,99
2023-04-28T02:23:39.078Z,99
2023-04-28T02:25:53.219Z,99
2023-04-28T02:26:59.863Z,99
2023-04-28T02:28:06.949Z,99
2023-04-28T02:29:14.087Z,99
2023-04-28T02:30:21.140Z,99
2023-04-28T02:31:28.330Z,99
2023-04-28T02:32:34.950Z,99
2023-04-28T02:33:41.986Z,99
2023-04-28T02:34:49.025Z,99
2023-04-28T02:35:56.132Z,99
2023-04-28T02:37:03.261Z,99
2023-04-28T02:38:09.886Z,99
2023-04-28T02:39:17.032Z,99
2023-04-28T02:40:24.048Z,99
2023-04-28T02:41:31.222Z,99
2023-04-28T02:42:38.328Z,99
2023-04-28T02:43:45.434Z,99
2023-04-28T02:44:52.437Z,99
2023-04-28T02:45:59.106Z,99
2023-04-28T02:47:06.269Z,99
2023-04-28T02:49:19.883Z,99
2023-04-28T02:50:26.982Z,99
2023-04-28T02:51:34.095Z,99
2023-04-28T02:52:41.160Z,99
2023-04-28T02:53:48.300Z,99
2023-04-28T02:54:54.889Z,99
2023-04-28T02:56:01.974Z,99
2023-04-28T02:57:09.054Z,99
2023-04-28T02:58:16.204Z,99
2023-04-28T02:59:23.318Z,99
2023-04-28T03:00:29.895Z,99
2023-04-28T03:01:37.042Z,99
2023-04-28T03:02:44.129Z,99
2023-04-28T03:03:51.383Z,99
2023-04-28T03:04:58.362Z,99
2023-04-28T03:06:04.927Z,99
2023-04-28T03:07:12.008Z,99
2023-04-28T03:08:19.092Z,99
2023-04-28T03:09:26.209Z,99
2023-04-28T03:10:33.248Z,99
2023-04-28T03:11:39.884Z,99
2023-04-28T03:12:47.033Z,99
2023-04-28T03:13:54.093Z,99
2023-04-28T03:15:01.151Z,99
2023-04-28T03:16:08.353Z,99
2023-04-28T03:17:14.919Z,99
2023-04-28T03:18:22.000Z,99
2023-04-28T03:19:29.162Z,99
2023-04-28T03:20:36.304Z,99
2023-04-28T03:21:43.402Z,99
2023-04-28T03:22:49.905Z,99
2023-04-28T03:23:57.056Z,99
2023-04-28T03:25:04.099Z,99
2023-04-28T03:26:11.233Z,99
2023-04-28T03:27:18.329Z,99
2023-04-28T03:29:32.026Z,99
2023-04-28T03:30:39.169Z,99
2023-04-28T03:31:46.285Z,99
2023-04-28T03:32:52.773Z,99
2023-04-28T03:33:59.934Z,99
2023-04-28T03:35:07.024Z,99
2023-04-28T03:37:21.225Z,99
2023-04-28T03:38:27.806Z,99
2023-04-28T03:39:34.942Z,99
2023-04-28T03:40:41.988Z,99
2023-04-28T03:41:49.160Z,99
2023-04-28T03:42:56.262Z,99
2023-04-28T03:44:02.899Z,99
2023-04-28T03:45:09.954Z,99
2023-04-28T03:46:17.086Z,99
2023-04-28T03:47:24.701Z,99
2023-04-28T03:48:31.220Z,99
2023-04-28T03:49:37.835Z,99
2023-04-28T03:50:44.952Z,99
2023-04-28T03:51:52.038Z,99
2023-04-28T03:52:59.212Z,99
2023-04-28T03:54:06.321Z,99
2023-04-28T03:55:12.842Z,99
2023-04-28T03:56:19.994Z,99
2023-04-28T03:57:27.112Z,99
2023-04-28T03:58:34.170Z,99
2023-04-28T03:59:41.215Z,99
2023-04-28T04:00:47.873Z,99
2023-04-28T04:01:54.970Z,99
2023-04-28T04:03:02.155Z,99
2023-04-28T04:04:09.470Z,99
2023-04-28T04:05:16.433Z,99
2023-04-28T04:06:22.855Z,99
2023-04-28T04:07:29.904Z,99
2023-04-28T04:08:37.104Z,99
2023-04-28T04:09:44.187Z,99
2023-04-28T04:10:51.275Z,99
2023-04-28T04:11:57.816Z,99
2023-04-28T04:13:05.513Z,99
2023-04-28T04:14:12.118Z,99
2023-04-28T04:15:19.196Z,99
2023-04-28T04:16:26.580Z,99
2023-04-28T04:17:32.924Z,99
2023-04-28T04:18:39.997Z,99
2023-04-28T04:19:47.122Z,99
2023-04-28T04:20:54.154Z,99
2023-04-28T04:22:01.304Z,99
2023-04-28T04:23:07.912Z,99
2023-04-28T04:24:15.354Z,99
2023-04-28T04:25:23.332Z,99
2023-04-28T04:26:29.216Z,99
2023-04-28T04:27:36.347Z,99
2023-04-28T04:28:43.027Z,99
2023-04-28T04:29:49.995Z,99
2023-04-28T04:30:57.210Z,99
2023-04-28T04:33:11.302Z,99
2023-04-28T04:34:18.112Z,99
2023-04-28T04:35:24.994Z,99
2023-04-28T04:36:32.107Z,99
2023-04-28T04:37:39.239Z,99
2023-04-28T04:38:46.355Z,99
2023-04-28T04:39:52.854Z,99
2023-04-28T04:41:00.017Z,99
2023-04-28T04:42:20.664Z,99
2023-04-28T04:43:14.227Z,99
2023-04-28T04:44:21.284Z,99
2023-04-28T04:45:27.889Z,99
2023-04-28T04:46:35.092Z,99
2023-04-28T04:47:42.214Z,99
2023-04-28T04:48:49.310Z,99
2023-04-28T04:49:56.310Z,99
2023-04-28T04:51:03.420Z,99
2023-04-28T04:52:10.010Z,99
2023-04-28T04:53:17.153Z,99
2023-04-28T04:54:24.248Z,99
2023-04-28T04:55:31.323Z,99
2023-04-28T04:56:37.938Z,99
2023-04-28T04:57:45.073Z,99
2023-04-28T04:58:52.133Z,99
2023-04-28T04:59:59.194Z,99
2023-04-28T05:01:05.821Z,100
2023-04-28T05:02:13.021Z,99
2023-04-28T05:03:20.212Z,99
2023-04-28T05:05:34.283Z,100
2023-04-28T05:06:40.800Z,100
2023-04-28T05:07:47.998Z,100
2023-04-28T05:08:55.053Z,99
2023-04-28T05:10:02.111Z,100
2023-04-28T05:11:09.265Z,99
2023-04-28T05:12:15.838Z,100
2023-04-28T05:13:22.963Z,100
2023-04-28T05:14:30.157Z,99
2023-04-28T05:15:37.133Z,99
2023-04-28T05:16:44.352Z,100
2023-04-28T05:17:50.914Z,100
2023-04-28T05:18:57.989Z,99
2023-04-28T05:20:05.073Z,99
2023-04-28T05:21:12.164Z,100
2023-04-28T05:22:19.350Z,100
2023-04-28T05:23:25.880Z,100
2023-04-28T05:24:33.015Z,99
2023-04-28T05:25:40.047Z,100
2023-04-28T05:26:47.202Z,99
2023-04-28T05:27:54.256Z,99
2023-04-28T05:29:00.841Z,99
2023-04-28T05:30:07.989Z,100
2023-04-28T05:31:15.117Z,99
2023-04-28T05:32:22.489Z,100
2023-04-28T05:33:29.442Z,100
2023-04-28T05:34:35.910Z,100
2023-04-28T05:36:50.067Z,99
2023-04-28T05:37:57.205Z,100
2023-04-28T05:39:04.301Z,100
2023-04-28T05:40:10.844Z,100
2023-04-28T05:41:18.487Z,100
2023-04-28T05:42:25.100Z,100
2023-04-28T05:43:32.173Z,100
2023-04-28T05:44:41.153Z,100
2023-04-28T05:45:46.028Z,100
2023-04-28T05:46:53.077Z,100
2023-04-28T05:48:00.177Z,100
2023-04-28T05:49:07.287Z,100
2023-04-28T05:50:14.341Z,100
2023-04-28T05:51:20.844Z,100
2023-04-28T05:52:28.013Z,100
2023-04-28T05:53:35.086Z,100
2023-04-28T05:54:42.795Z,100
2023-04-28T05:55:49.364Z,100
2023-04-28T05:56:55.885Z,99
2023-04-28T05:58:02.992Z,100
2023-04-28T05:59:10.283Z,100
2023-04-28T06:00:17.272Z,100
2023-04-28T06:01:24.300Z,100
2023-04-28T06:02:30.953Z,100
2023-04-28T06:03:38.171Z,100
2023-04-28T06:04:45.282Z,100
2023-04-28T06:05:52.225Z,100
2023-04-28T06:06:59.322Z,100
2023-04-28T06:08:05.918Z,100
2023-04-28T06:09:13.055Z,100
2023-04-28T06:10:20.163Z,100
2023-04-28T06:11:27.311Z,100
2023-04-28T06:12:34.292Z,100
2023-04-28T06:13:40.929Z,100
2023-04-28T06:14:48.046Z,100
2023-04-28T06:15:55.201Z,100
2023-04-28T06:17:02.193Z,100
2023-04-28T06:18:08.908Z,100
2023-04-28T06:19:16.000Z,100
2023-04-28T06:20:23.032Z,100
2023-04-28T06:21:30.188Z,100
2023-04-28T06:22:37.264Z,100
2023-04-28T06:23:43.826Z,100
2023-04-28T06:24:50.935Z,100
2023-04-28T06:25:58.025Z,100
2023-04-28T06:27:05.172Z,100
2023-04-28T06:28:12.231Z,100
2023-04-28T06:29:18.896Z,100
2023-04-28T06:30:26.022Z,100
2023-04-28T06:31:33.068Z,100
2023-04-28T06:33:47.254Z,100
2023-04-28T06:34:53.851Z,100
2023-04-28T06:36:01.036Z,100
2023-04-28T06:37:08.121Z,100
2023-04-28T06:38:15.175Z,100
2023-04-28T06:40:28.917Z,100
2023-04-28T06:41:36.003Z,100
2023-04-28T06:42:43.105Z,100
2023-04-28T06:43:50.177Z,100
2023-04-28T06:44:57.563Z,100
2023-04-28T06:46:03.823Z,100
2023-04-28T06:47:10.954Z,100
2023-04-28T06:48:18.073Z,100
2023-04-28T06:49:25.250Z,100
2023-04-28T06:50:32.238Z,100
2023-04-28T06:51:38.894Z,100
2023-04-28T06:52:46.023Z,100
2023-04-28T06:53:53.113Z,100
2023-04-28T06:55:00.235Z,100
2023-04-28T06:56:08.715Z,100
2023-04-28T06:57:13.875Z,100
2023-04-28T06:58:21.463Z,100
2023-04-28T06:59:28.142Z,100
2023-04-28T07:00:35.259Z,100
2023-04-28T07:01:42.340Z,100
2023-04-28T07:02:49.156Z,100
2023-04-28T07:03:56.195Z,100
2023-04-28T07:05:03.153Z,100
2023-04-28T07:06:10.214Z,100
2023-04-28T07:07:17.305Z,100
2023-04-28T07:08:23.896Z,100
2023-04-28T07:09:31.641Z,100
2023-04-28T07:10:38.122Z,99
2023-04-28T07:11:45.233Z,99
2023-04-28T07:12:52.311Z,99
2023-04-28T07:13:58.907Z,99
2023-04-28T07:15:06.491Z,99
2023-04-28T07:16:13.172Z,99
2023-04-28T07:17:20.217Z,99
2023-04-28T07:18:27.315Z,99
2023-04-28T07:19:33.913Z,99
2023-04-28T07:20:40.998Z,99
2023-04-28T07:21:48.160Z,99
2023-04-28T07:22:55.264Z,99
2023-04-28T07:24:02.485Z,99
2023-04-28T07:25:08.951Z,99
2023-04-28T07:26:16.064Z,99
2023-04-28T07:27:23.083Z,99
2023-04-28T07:28:30.214Z,99
2023-04-28T07:29:37.359Z,99
2023-04-28T07:30:43.926Z,99
2023-04-28T07:31:51.046Z,99
2023-04-28T07:32:58.276Z,99
2023-04-28T07:34:05.281Z,99
2023-04-28T07:35:12.312Z,99
2023-04-28T07:36:18.956Z,99
2023-04-28T07:37:26.087Z,99
2023-04-28T07:38:33.143Z,99
2023-04-28T07:39:40.298Z,99
2023-04-28T07:40:46.852Z,99
2023-04-28T07:41:53.977Z,99
2023-04-28T07:44:08.157Z,99
2023-04-28T07:45:15.297Z,99
2023-04-28T07:46:22.373Z,99
2023-04-28T07:47:28.963Z,99
2023-04-28T07:48:36.099Z,99
2023-04-28T07:49:43.225Z,98
2023-04-28T07:50:50.245Z,101
2023-04-28T07:51:56.912Z,101
2023-04-28T07:53:03.975Z,101
2023-04-28T07:54:11.064Z,100
2023-04-28T07:55:18.184Z,100
2023-04-28T07:56:25.279Z,100
2023-04-28T07:57:31.868Z,100
2023-04-28T07:58:38.979Z,100
2023-04-28T07:59:46.105Z,100
2023-04-28T08:02:00.803Z,100
2023-04-28T08:03:07.044Z,100
2023-04-28T08:04:14.498Z,100
2023-04-28T08:05:21.422Z,100
2023-04-28T08:06:28.199Z,100
2023-04-28T08:07:35.312Z,100
2023-04-28T08:08:41.889Z,100
2023-04-28T08:09:49.051Z,100
2023-04-28T08:10:56.125Z,100
2023-04-28T08:12:03.201Z,100
2023-04-28T08:13:10.314Z,100
2023-04-28T08:14:17.219Z,100
2023-04-28T08:15:23.933Z,100
2023-04-28T08:16:31.080Z,100
2023-04-28T08:17:38.270Z,100
2023-04-28T08:18:45.358Z,100
2023-04-28T08:19:51.885Z,99
2023-04-28T08:20:59.024Z,97
2023-04-28T08:22:06.841Z,97
2023-04-28T08:23:13.188Z,94
2023-04-28T08:24:20.345Z,95
2023-04-28T08:25:27.028Z,94
2023-04-28T08:26:33.966Z,94
2023-04-28T08:27:41.077Z,94
2023-04-28T08:28:48.221Z,94
2023-04-28T08:29:55.339Z,93
2023-04-28T08:31:01.916Z,93
2023-04-28T08:32:09.056Z,93
2023-04-28T08:33:16.167Z,93
2023-04-28T08:34:23.264Z,92
2023-04-28T08:35:30.349Z,92
2023-04-28T08:36:36.921Z,91
2023-04-28T08:37:44.504Z,91
2023-04-28T08:38:51.113Z,91
2023-04-28T08:39:58.248Z,91
2023-04-28T08:41:05.344Z,92
2023-04-28T08:42:11.921Z,92
2023-04-28T08:43:19.017Z,92
2023-04-28T08:44:26.219Z,92
2023-04-28T08:45:33.248Z,92
2023-04-28T08:47:46.944Z,93
2023-04-28T08:48:54.369Z,93
2023-04-28T08:50:01.134Z,92
2023-04-28T08:51:08.214Z,93
2023-04-28T08:52:15.380Z,92
2023-04-28T08:53:21.957Z,92
2023-04-28T08:54:29.156Z,92
2023-04-28T08:55:36.185Z,91
2023-04-28T08:56:43.260Z,91
2023-04-28T08:57:50.366Z,90
2023-04-28T08:58:56.961Z,90
2023-04-28T09:00:04.048Z,89
2023-04-28T09:01:11.142Z,89
2023-04-28T09:02:18.386Z,89
2023-04-28T09:03:25.185Z,88
2023-04-28T09:04:32.165Z,88
2023-04-28T09:05:39.755Z,88
2023-04-28T09:06:46.278Z,87
2023-04-28T09:07:53.265Z,87
2023-04-28T09:08:59.876Z,87
2023-04-28T09:10:07.005Z,87
2023-04-28T09:11:14.007Z,87
2023-04-28T09:12:21.108Z,87
2023-04-28T09:13:28.408Z,87
2023-04-28T09:14:34.903Z,87
2023-04-28T09:15:41.969Z,87
2023-04-28T09:16:49.207Z,88
2023-04-28T09:17:56.219Z,88
2023-04-28T09:19:03.308Z,88
2023-04-28T09:20:09.879Z,88
2023-04-28T09:21:16.982Z,88
2023-04-28T09:22:26.868Z,88
2023-04-28T09:23:31.177Z,88
2023-04-28T09:24:38.485Z,88
2023-04-28T09:25:44.875Z,88
2023-04-28T09:26:54.079Z,87
2023-04-28T09:27:59.034Z,87
2023-04-28T09:30:13.270Z,86
2023-04-28T09:31:19.970Z,85
2023-04-28T09:32:27.083Z,85
2023-04-28T09:33:34.051Z,84
2023-04-28T09:34:41.229Z,84
2023-04-28T09:35:48.291Z,84
2023-04-28T09:36:54.908Z,84
2023-04-28T09:38:01.948Z,83
2023-04-28T09:39:09.112Z,83
2023-04-28T09:40:16.301Z,83
2023-04-28T09:41:23.286Z,83
2023-04-28T09:42:29.868Z,83
2023-04-28T09:43:37.035Z,83
2023-04-28T09:44:44.113Z,83
2023-04-28T09:45:51.302Z,83
2023-04-28T09:46:58.308Z,83
2023-04-28T09:48:05.056Z,83
2023-04-28T09:49:11.991Z,83
2023-04-28T09:51:26.321Z,84
2023-04-28T09:52:33.324Z,84
2023-04-28T09:53:39.925Z,85
2023-04-28T09:54:47.057Z,85
2023-04-28T09:55:54.122Z,84
2023-04-28T09:57:01.222Z,84
2023-04-28T09:58:07.825Z,84
2023-04-28T09:59:14.920Z,84
2023-04-28T10:00:22.102Z,84
2023-04-28T10:01:29.144Z,83
2023-04-28T10:03:43.500Z,83
2023-04-28T10:04:50.072Z,83
2023-04-28T10:05:57.583Z,84
2023-04-28T10:07:04.120Z,84
2023-04-28T10:08:11.242Z,84
2023-04-28T10:09:18.345Z,84
2023-04-28T10:10:25.004Z,83
2023-04-28T10:11:32.026Z,83
2023-04-28T10:12:39.351Z,83
2023-04-28T10:13:46.386Z,83
2023-04-28T10:14:52.866Z,82
2023-04-28T10:16:00.137Z,82
2023-04-28T10:17:07.081Z,82
2023-04-28T10:18:14.200Z,82
2023-04-28T10:19:21.277Z,81
2023-04-28T10:20:27.829Z,81
2023-04-28T10:21:34.975Z,81
2023-04-28T10:22:42.064Z,81
2023-04-28T10:23:49.165Z,81
2023-04-28T10:24:56.306Z,80
2023-04-28T10:26:02.861Z,80
2023-04-28T10:27:09.973Z,80
2023-04-28T10:28:17.066Z,80
2023-04-28T10:29:24.130Z,80
2023-04-28T10:30:31.412Z,80
2023-04-28T10:31:37.900Z,79
2023-04-28T10:32:44.989Z,80
2023-04-28T10:33:52.020Z,80
2023-04-28T10:34:59.266Z,80
2023-04-28T10:36:06.280Z,79
2023-04-28T10:37:12.857Z,79
2023-04-28T10:38:19.981Z,79
2023-04-28T10:39:27.143Z,78
2023-04-28T10:40:34.266Z,77
2023-04-28T10:41:41.297Z,77
2023-04-28T10:42:47.868Z,77
2023-04-28T10:43:54.984Z,76
2023-04-28T10:45:02.087Z,76
2023-04-28T10:46:09.294Z,76
2023-04-28T10:47:16.339Z,76
2023-04-28T10:48:22.889Z,76
2023-04-28T10:49:30.049Z,75
2023-04-28T10:50:39.064Z,74
2023-04-28T10:51:44.156Z,74
2023-04-28T10:52:51.308Z,75
2023-04-28T10:55:12.478Z,74
2023-04-28T10:56:12.098Z,74
2023-04-28T10:58:26.319Z,75
2023-04-28T10:59:32.970Z,75
2023-04-28T11:00:40.086Z,74
2023-04-28T11:01:47.181Z,74
2023-04-28T11:02:54.465Z,74
2023-04-28T11:04:01.268Z,75
2023-04-28T11:05:08.172Z,75
2023-04-28T11:06:15.068Z,74
2023-04-28T11:07:22.094Z,74
2023-04-28T11:08:29.275Z,74
2023-04-28T11:09:36.343Z,75
2023-04-28T11:10:42.895Z,75
2023-04-28T11:11:50.010Z,75
2023-04-28T11:12:57.677Z,75
2023-04-28T11:14:04.225Z,74
2023-04-28T11:15:10.839Z,74
2023-04-28T11:16:18.017Z,74
2023-04-28T11:17:25.084Z,73
2023-04-28T11:18:32.143Z,73
2023-04-28T11:19:39.308Z,73
2023-04-28T11:20:45.859Z,74
2023-04-28T11:21:52.940Z,74
2023-04-28T11:23:00.066Z,74
2023-04-28T11:24:07.165Z,73
2023-04-28T11:25:14.278Z,73
2023-04-28T11:26:20.787Z,73
2023-04-28T11:27:27.975Z,73
2023-04-28T11:28:35.020Z,73
2023-04-28T11:29:42.139Z,72
2023-04-28T11:30:49.262Z,72
2023-04-28T11:31:55.878Z,73
2023-04-28T11:33:02.987Z,72
2023-04-28T11:34:10.579Z,72
2023-04-28T11:35:17.154Z,72
2023-04-28T11:36:24.239Z,72
2023-04-28T11:37:30.878Z,72
2023-04-28T11:38:37.951Z,72
2023-04-28T11:39:45.117Z,72
2023-04-28T11:40:52.243Z,71
2023-04-28T11:41:59.318Z,71
2023-04-28T11:43:05.890Z,72
2023-04-28T11:44:12.951Z,72
2023-04-28T11:45:20.056Z,72
2023-04-28T11:46:27.270Z,72
2023-04-28T11:47:34.555Z,72
2023-04-28T11:48:40.867Z,71
2023-04-28T11:49:48.005Z,71
2023-04-28T11:50:55.111Z,71
2023-04-28T11:52:02.201Z,71
2023-04-28T11:53:09.325Z,70
2023-04-28T11:54:15.892Z,70
2023-04-28T11:55:22.924Z,71
2023-04-28T11:56:30.072Z,71
2023-04-28T11:58:44.245Z,72
2023-04-28T11:59:51.171Z,72
2023-04-28T12:00:57.982Z,71
2023-04-28T12:02:06.824Z,71
2023-04-28T12:03:12.319Z,71
2023-04-28T12:04:19.447Z,71
2023-04-28T12:05:25.960Z,70
2023-04-28T12:06:32.979Z,70
2023-04-28T12:07:40.104Z,70
2023-04-28T12:08:47.187Z,71
2023-04-28T12:09:54.313Z,71
2023-04-28T12:11:00.873Z,71
2023-04-28T12:12:08.024Z,70
2023-04-28T12:13:15.134Z,70
2023-04-28T12:14:22.191Z,70
2023-04-28T12:15:29.337Z,70
2023-04-28T12:16:36.444Z,70
2023-04-28T12:17:43.146Z,70
2023-04-28T12:18:50.102Z,70
2023-04-28T12:19:57.257Z,70
2023-04-28T12:21:03.801Z,70
2023-04-28T12:22:10.946Z,70
2023-04-28T12:23:18.021Z,70
2023-04-28T12:24:25.147Z,70
2023-04-28T12:26:38.798Z,70
2023-04-28T12:27:45.952Z,70
2023-04-28T12:28:52.974Z,70
2023-04-28T12:30:00.148Z,70
2023-04-28T12:31:07.256Z,69
2023-04-28T12:32:13.837Z,70
2023-04-28T12:33:20.903Z,70
2023-04-28T12:34:28.055Z,69
2023-04-28T12:35:35.130Z,69
2023-04-28T12:36:42.240Z,69
2023-04-28T12:37:48.841Z,69
2023-04-28T12:38:55.954Z,69
2023-04-28T12:40:03.023Z,69
2023-04-28T12:41:10.167Z,69
2023-04-28T12:42:17.201Z,69
2023-04-28T12:43:23.828Z,69
2023-04-28T12:44:30.954Z,69
2023-04-28T12:45:38.909Z,69
2023-04-28T12:46:45.233Z,69
2023-04-28T12:47:52.295Z,69
2023-04-28T12:48:58.883Z,68
2023-04-28T12:50:05.983Z,68
2023-04-28T12:51:13.042Z,68
2023-04-28T12:52:20.158Z,68
2023-04-28T12:53:27.237Z,68
2023-04-28T12:54:33.872Z,68
2023-04-28T12:55:40.933Z,68
2023-04-28T12:56:48.072Z,68
2023-04-28T12:57:55.185Z,68
2023-04-28T12:59:02.258Z,68
2023-04-28T13:00:08.937Z,68
2023-04-28T13:02:23.128Z,67
2023-04-28T13:03:30.347Z,67
2023-04-28T13:04:37.641Z,67
2023-04-28T13:05:43.865Z,67
2023-04-28T13:06:50.952Z,67
2023-04-28T13:07:58.086Z,67
2023-04-28T13:09:05.221Z,67
2023-04-28T13:10:12.300Z,67
2023-04-28T13:11:22.780Z,67
2023-04-28T13:12:26.069Z,67
2023-04-28T13:13:33.079Z,67
2023-04-28T13:14:40.205Z,67
2023-04-28T13:15:47.438Z,67
2023-04-28T13:16:53.882Z,68
2023-04-28T13:18:01.076Z,67
2023-04-28T13:19:08.130Z,67
2023-04-28T13:20:15.708Z,67
2023-04-28T13:21:21.831Z,67
2023-04-28T13:22:28.898Z,67
2023-04-28T13:23:36.000Z,66
2023-04-28T13:24:43.462Z,66
2023-04-28T13:25:50.367Z,67
2023-04-28T13:26:56.807Z,67
2023-04-28T13:28:03.908Z,67
2023-04-28T13:29:10.999Z,67
2023-04-28T13:30:18.183Z,67
2023-04-28T13:31:25.259Z,67
2023-04-28T13:32:31.818Z,67
2023-04-28T13:33:38.922Z,66
2023-04-28T13:34:46.544Z,67
2023-04-28T13:35:53.116Z,67
2023-04-28T13:37:00.261Z,67
2023-04-28T13:38:06.876Z,67
2023-04-28T13:39:13.869Z,66
2023-04-28T13:40:21.097Z,67
2023-04-28T13:41:28.187Z,67
2023-04-28T13:42:35.267Z,66
2023-04-28T13:43:41.783Z,66
2023-04-28T13:44:48.914Z,66
2023-04-28T13:45:56.132Z,66
2023-04-28T13:47:03.091Z,66
2023-04-28T13:48:10.289Z,66
2023-04-28T13:49:16.822Z,66
2023-04-28T13:50:23.877Z,66
2023-04-28T13:51:31.044Z,66
2023-04-28T13:52:38.226Z,66
2023-04-28T13:53:45.278Z,66
2023-04-28T13:54:51.838Z,66
2023-04-28T13:55:58.886Z,66
2023-04-28T13:57:06.021Z,66
2023-04-28T13:58:13.159Z,65
2023-04-28T13:59:20.285Z,65
2023-04-28T14:00:26.832Z,65
2023-04-28T14:01:33.963Z,65
2023-04-28T14:02:41.134Z,65
2023-04-28T14:03:48.262Z,65
2023-04-28T14:06:01.791Z,65
2023-04-28T14:07:08.909Z,65
2023-04-28T14:08:16.386Z,65
2023-04-28T14:09:23.115Z,66
2023-04-28T14:10:30.303Z,66
2023-04-28T14:11:36.860Z,66
2023-04-28T14:12:43.931Z,65
2023-04-28T14:13:51.063Z,66
2023-04-28T14:14:58.192Z,66
2023-04-28T14:16:05.279Z,65
2023-04-28T14:17:11.846Z,65
2023-04-28T14:18:18.938Z,65
2023-04-28T14:19:26.073Z,65
2023-04-28T14:20:33.181Z,65
2023-04-28T14:21:40.258Z,65
2023-04-28T14:22:46.845Z,65
2023-04-28T14:23:54.470Z,65
2023-04-28T14:25:01.084Z,65
2023-04-28T14:26:08.237Z,65
2023-04-28T14:27:15.321Z,65
2023-04-28T14:28:21.828Z,65
2023-04-28T14:29:29.033Z,65
2023-04-28T14:30:36.063Z,64
2023-04-28T14:31:43.253Z,64
2023-04-28T14:32:49.809Z,64
2023-04-28T14:33:56.896Z,64
2023-04-28T14:35:03.980Z,64
2023-04-28T14:36:11.074Z,64
2023-04-28T14:37:18.227Z,64
2023-04-28T14:38:24.799Z,64
2023-04-28T14:39:31.855Z,64
2023-04-28T14:40:39.024Z,64
2023-04-28T14:41:46.156Z,64
2023-04-28T14:42:53.162Z,64
2023-04-28T14:43:59.788Z,64
2023-04-28T14:45:06.944Z,64
2023-04-28T14:46:14.017Z,64
2023-04-28T14:47:21.177Z,64
2023-04-28T14:48:28.263Z,64
2023-04-28T14:49:34.820Z,64
2023-04-28T14:50:41.883Z,64
2023-04-28T14:51:49.011Z,64
2023-04-28T14:52:56.135Z,64
2023-04-28T14:54:03.208Z,64
2023-04-28T14:55:09.842Z,64
2023-04-28T14:56:19.086Z,64
2023-04-28T14:57:23.975Z,64
2023-04-28T14:58:31.125Z,64
2023-04-28T14:59:38.262Z,64
2023-04-28T15:00:44.846Z,64
2023-04-28T15:01:52.122Z,64
2023-04-28T15:02:59.229Z,64
2023-04-28T15:04:06.277Z,65
2023-04-28T15:05:13.188Z,65
2023-04-28T15:06:19.900Z,65
2023-04-28T15:07:26.941Z,65
2023-04-28T15:09:41.101Z,65
2023-04-28T15:10:48.318Z,65
2023-04-28T15:11:54.824Z,64
2023-04-28T15:13:01.942Z,64
2023-04-28T15:14:09.081Z,64
2023-04-28T15:15:16.244Z,64
2023-04-28T15:16:23.303Z,64
2023-04-28T15:17:29.894Z,65
2023-04-28T15:18:36.977Z,65
2023-04-28T15:19:44.060Z,65
2023-04-28T15:20:51.146Z,64
2023-04-28T15:21:58.294Z,64
2023-04-28T15:23:04.834Z,64
2023-04-28T15:24:11.909Z,64
2023-04-28T15:25:19.124Z,64
2023-04-28T15:26:27.194Z,64
2023-04-28T15:27:33.809Z,64
2023-04-28T15:28:39.868Z,64
2023-04-28T15:29:46.934Z,64
2023-04-28T15:30:54.025Z,63
2023-04-28T15:32:01.427Z,63
2023-04-28T15:33:08.388Z,63
2023-04-28T15:34:14.864Z,64
2023-04-28T15:35:21.950Z,64
2023-04-28T15:36:29.104Z,64
2023-04-28T15:37:36.197Z,64
2023-04-28T15:38:42.739Z,64
2023-04-28T15:39:49.882Z,63
2023-04-28T15:40:57.023Z,63
2023-04-28T15:42:06.784Z,63
2023-04-28T15:43:11.170Z,63
2023-04-28T15:44:18.318Z,63
2023-04-28T15:45:24.956Z,62
2023-04-28T15:46:31.968Z,63
2023-04-28T15:47:39.486Z,63
2023-04-28T15:48:46.247Z,63
2023-04-28T15:49:53.274Z,63
2023-04-28T15:50:59.908Z,63
2023-04-28T15:52:06.978Z,63
2023-04-28T15:53:14.067Z,63
2023-04-28T15:54:21.151Z,63
2023-04-28T15:55:27.835Z,63
2023-04-28T15:56:34.889Z,63
2023-04-28T15:57:42.121Z,63
2023-04-28T15:59:56.282Z,63
2023-04-28T16:01:02.862Z,63
2023-04-28T16:02:09.903Z,62
2023-04-28T16:03:17.127Z,62
2023-04-28T16:04:24.229Z,62
2023-04-28T16:05:31.280Z,62
2023-04-28T16:06:37.796Z,62
2023-04-28T16:07:44.931Z,62
2023-04-28T16:08:52.018Z,62
2023-04-28T16:09:59.128Z,63
2023-04-28T16:11:06.258Z,62
2023-04-28T16:12:12.776Z,62
2023-04-28T16:13:19.900Z,63
2023-04-28T16:14:27.101Z,63
2023-04-28T16:15:34.134Z,62
2023-04-28T16:16:41.292Z,62
2023-04-28T16:17:47.898Z,62
2023-04-28T16:18:54.963Z,62
2023-04-28T16:20:02.035Z,62
2023-04-28T16:21:09.119Z,62